Time;durP1;ratioP1;P1;durP2;ratioP2;P2;SDS_P1;SDS_P2;PMS_P1;PMS_P2;Temp;Humidity;BMP_temperature;BMP_pressure;BME280_temperature;BME280_humidity;BME280_pressure;Samples;Min_cycle;Max_cycle;Signal;HPM_P1;HPM_P2
2022/05/04 00:00:48;;;;;;;3.50;2.93;;;13.50;87.40;;;;;;4956092;28;20596;-67
2022/05/04 00:03:15;;;;;;;3.03;2.67;;;13.50;87.40;;;;;;4955352;28;20218;-67
2022/05/04 00:05:44;;;;;;;5.50;2.60;;;13.50;87.70;;;;;;4956403;29;20223;-67
2022/05/04 00:08:11;;;;;;;2.87;2.40;;;13.50;88.30;;;;;;4963894;28;20216;-66
2022/05/04 00:10:38;;;;;;;3.87;3.10;;;13.50;88.50;;;;;;4956697;28;20292;-66
2022/05/04 00:13:05;;;;;;;8.27;5.57;;;13.50;88.60;;;;;;4961665;28;20296;-66
2022/05/04 00:15:32;;;;;;;3.73;3.20;;;13.50;88.90;;;;;;4970191;28;20355;-67
2022/05/04 00:17:59;;;;;;;3.60;2.80;;;13.50;89.20;;;;;;4964694;28;20236;-66
2022/05/04 00:20:26;;;;;;;5.00;3.93;;;13.50;89.60;;;;;;4972121;28;20584;-68
2022/05/04 00:22:54;;;;;;;3.43;2.57;;;13.50;90.00;;;;;;4955422;28;20312;-67
2022/05/04 00:25:21;;;;;;;3.43;2.70;;;13.40;90.00;;;;;;4968973;28;20316;-67
2022/05/04 00:27:48;;;;;;;6.30;3.53;;;13.40;90.20;;;;;;4974408;28;20662;-67
2022/05/04 00:30:15;;;;;;;3.10;2.57;;;13.40;90.40;;;;;;4964832;28;20205;-68
2022/05/04 00:32:44;;;;;;;4.00;2.63;;;13.40;90.50;;;;;;4955759;28;20210;-67
2022/05/04 00:35:11;;;;;;;3.07;2.50;;;13.40;90.70;;;;;;4955838;28;20637;-66
2022/05/04 00:37:37;;;;;;;3.93;2.67;;;13.30;90.80;;;;;;4961441;28;20219;-67
2022/05/04 00:40:07;;;;;;;3.90;2.90;;;13.40;91.10;;;;;;4956115;28;20326;-66
2022/05/04 00:42:34;;;;;;;3.70;3.10;;;13.40;91.20;;;;;;4954521;28;20608;-67
2022/05/04 00:45:01;;;;;;;4.90;3.10;;;13.40;91.20;;;;;;4955940;28;20673;-68
2022/05/04 00:47:28;;;;;;;4.23;3.30;;;13.40;91.40;;;;;;4955496;28;20702;-66
2022/05/04 00:49:56;;;;;;;4.03;2.73;;;13.40;91.50;;;;;;4969087;28;20277;-66
2022/05/04 00:52:24;;;;;;;4.43;3.30;;;13.30;91.70;;;;;;4955132;28;20296;-67
2022/05/04 00:54:52;;;;;;;5.60;2.90;;;13.30;91.90;;;;;;4956726;28;20328;-65
2022/05/04 00:58:54;;;;;;;4.30;3.00;;;13.30;92.10;;;;;;4960378;28;20236;-66
2022/05/04 01:00:11;;;;;;;4.87;2.83;;;13.30;92.20;;;;;;4960494;28;20622;-71
2022/05/04 01:02:38;;;;;;;4.23;3.20;;;13.30;92.50;;;;;;4962353;28;20206;-70
2022/05/04 01:05:09;;;;;;;4.53;3.37;;;13.20;92.80;;;;;;4954696;28;20232;-69
2022/05/04 01:07:36;;;;;;;5.23;3.10;;;13.20;92.60;;;;;;4959549;28;20660;-69
2022/05/04 01:10:03;;;;;;;3.37;2.73;;;13.10;92.90;;;;;;4957180;28;20264;-68
2022/05/04 01:12:32;;;;;;;5.97;3.30;;;13.10;93.10;;;;;;4958172;28;20555;-70
2022/05/04 01:14:59;;;;;;;4.87;3.40;;;13.00;93.30;;;;;;4959342;28;20252;-69
2022/05/04 01:17:27;;;;;;;3.47;2.70;;;12.90;93.40;;;;;;4954388;28;20216;-69
2022/05/04 01:19:55;;;;;;;4.43;2.83;;;12.90;93.80;;;;;;4954417;28;20260;-69
2022/05/04 01:22:24;;;;;;;3.60;3.13;;;12.80;94.10;;;;;;4954806;28;20243;-69
2022/05/04 01:24:51;;;;;;;4.47;2.77;;;12.70;94.40;;;;;;4968134;28;20251;-70
2022/05/04 01:27:18;;;;;;;3.37;3.00;;;12.70;94.70;;;;;;4972108;28;20295;-71
2022/05/04 01:29:46;;;;;;;4.83;2.90;;;12.70;95.00;;;;;;4954717;28;20201;-69
2022/05/04 01:32:13;;;;;;;3.60;3.17;;;12.60;95.20;;;;;;4954656;28;20213;-71
2022/05/04 01:34:40;;;;;;;3.63;2.97;;;12.60;95.50;;;;;;4967121;28;20224;-69
2022/05/04 01:37:07;;;;;;;4.40;3.17;;;12.50;95.70;;;;;;4953843;28;20205;-69
2022/05/04 01:39:35;;;;;;;2.73;2.53;;;12.50;96.00;;;;;;4961324;28;20312;-70
2022/05/04 01:42:05;;;;;;;3.83;2.87;;;12.40;96.20;;;;;;4953831;28;20241;-69
2022/05/04 01:44:32;;;;;;;3.23;2.80;;;12.40;96.40;;;;;;4961258;28;20212;-70
2022/05/04 01:46:59;;;;;;;3.73;3.10;;;12.40;96.50;;;;;;4958017;28;20307;-69
2022/05/04 01:49:26;;;;;;;2.97;2.67;;;12.30;96.70;;;;;;4958710;28;20562;-69
2022/05/04 01:51:53;;;;;;;5.00;2.60;;;12.30;96.90;;;;;;4954159;28;20276;-70
2022/05/04 01:54:20;;;;;;;4.20;2.80;;;12.20;96.90;;;;;;4967171;28;20271;-69
2022/05/04 01:56:49;;;;;;;4.53;2.70;;;12.20;97.10;;;;;;4969456;28;20258;-70
2022/05/04 01:59:15;;;;;;;3.53;2.70;;;12.10;97.40;;;;;;4961636;28;20296;-70
2022/05/04 02:01:43;;;;;;;5.10;2.90;;;12.10;97.70;;;;;;4956025;28;20213;-70
2022/05/04 02:04:10;;;;;;;3.90;2.87;;;12.00;97.90;;;;;;4962864;28;20224;-69
2022/05/04 02:06:37;;;;;;;4.43;3.20;;;11.90;98.10;;;;;;4958412;28;20209;-70
2022/05/04 02:09:05;;;;;;;4.50;2.90;;;11.90;98.30;;;;;;4963224;28;20299;-70
2022/05/04 02:11:33;;;;;;;3.40;3.00;;;11.90;98.50;;;;;;4963333;28;20305;-69
2022/05/04 02:14:01;;;;;;;3.60;2.50;;;11.90;98.70;;;;;;4964882;28;20241;-70
2022/05/04 02:16:29;;;;;;;3.07;2.40;;;11.90;98.90;;;;;;4957587;28;20244;-69
2022/05/04 02:18:56;;;;;;;5.47;3.63;;;11.90;99.10;;;;;;4961947;28;20241;-69
2022/05/04 02:21:23;;;;;;;2.83;2.53;;;11.90;99.30;;;;;;4956708;28;20260;-69
2022/05/04 02:23:50;;;;;;;4.23;2.70;;;11.80;99.30;;;;;;4970533;28;20204;-71
2022/05/04 02:26:17;;;;;;;4.13;2.90;;;11.90;99.50;;;;;;4977223;28;20205;-70
2022/05/04 02:28:44;;;;;;;7.30;3.00;;;11.90;99.50;;;;;;4976669;28;20213;-70
2022/05/04 02:31:13;;;;;;;3.80;2.83;;;11.80;99.60;;;;;;4957706;28;20213;-70
2022/05/04 02:33:40;;;;;;;4.83;3.13;;;11.80;99.70;;;;;;4967398;28;20299;-70
2022/05/04 02:38:51;;;;;;;4.30;2.50;;;11.80;99.90;;;;;;4957546;28;20806;-69
2022/05/04 02:41:18;;;;;;;3.70;3.40;;;11.80;99.90;;;;;;4957078;28;20706;-69
2022/05/04 02:43:45;;;;;;;4.90;3.00;;;11.70;99.90;;;;;;4958058;28;20198;-70
2022/05/04 02:46:14;;;;;;;5.33;2.73;;;11.70;99.90;;;;;;4957089;28;20216;-70
2022/05/04 02:48:41;;;;;;;8.63;3.30;;;11.70;99.90;;;;;;4956907;28;20567;-70
2022/05/04 02:51:08;;;;;;;6.67;3.40;;;11.70;99.90;;;;;;4958624;28;20245;-70
2022/05/04 02:53:35;;;;;;;4.50;2.63;;;11.70;99.90;;;;;;4968100;28;20675;-70
2022/05/04 02:56:03;;;;;;;4.27;2.67;;;11.60;99.90;;;;;;4957111;28;20206;-70
2022/05/04 02:58:30;;;;;;;3.93;3.00;;;11.60;99.90;;;;;;4956765;28;20201;-70
2022/05/04 03:02:26;;;;;;;3.57;2.93;;;11.60;99.90;;;;;;4971242;28;20224;-69
2022/05/04 03:04:02;;;;;;;3.77;2.60;;;11.60;99.90;;;;;;4966559;28;20217;-68
2022/05/04 03:06:29;;;;;;;7.07;2.90;;;11.60;99.90;;;;;;4964221;28;20252;-69
2022/05/04 03:08:56;;;;;;;3.53;2.77;;;11.60;99.90;;;;;;4956106;28;20248;-69
2022/05/04 03:14:07;;;;;;;3.53;2.70;;;11.50;99.90;;;;;;4964311;28;20252;-70
2022/05/04 03:16:34;;;;;;;2.83;2.43;;;11.50;99.90;;;;;;4967616;28;20215;-70
2022/05/04 03:19:03;;;;;;;3.93;2.43;;;11.50;99.90;;;;;;4958466;28;20217;-70
2022/05/04 03:21:30;;;;;;;4.97;2.60;;;11.40;99.90;;;;;;4962331;28;20244;-69
2022/05/04 03:23:56;;;;;;;4.47;2.93;;;11.40;99.90;;;;;;4956541;28;20301;-70
2022/05/04 03:26:24;;;;;;;4.30;2.70;;;11.40;99.90;;;;;;4963717;28;20232;-70
2022/05/04 03:28:51;;;;;;;4.87;2.50;;;11.40;99.90;;;;;;4972369;28;20217;-70
2022/05/04 03:31:18;;;;;;;4.27;2.50;;;11.50;99.90;;;;;;4956585;28;20215;-70
2022/05/04 03:33:46;;;;;;;5.23;2.63;;;11.40;99.90;;;;;;4957199;28;20213;-69
2022/05/04 03:36:14;;;;;;;3.73;2.40;;;11.50;99.90;;;;;;4961145;28;20440;-70
2022/05/04 03:38:41;;;;;;;3.93;2.80;;;11.50;99.90;;;;;;4962735;28;20735;-71
2022/05/04 03:41:08;;;;;;;3.97;3.10;;;11.50;99.90;;;;;;4955801;28;20221;-69
2022/05/04 03:43:35;;;;;;;8.60;3.33;;;11.50;99.90;;;;;;4961500;28;20681;-70
2022/05/04 03:46:13;;;;;;;3.77;2.90;;;11.50;99.90;;;;;;4969582;28;20801;-70
2022/05/04 03:48:39;;;;;;;4.83;2.97;;;11.50;99.90;;;;;;4956029;28;20329;-70
2022/05/04 03:51:06;;;;;;;5.07;3.50;;;11.50;99.90;;;;;;4968362;28;20531;-69
2022/05/04 03:53:35;;;;;;;6.20;3.57;;;11.50;99.90;;;;;;4956292;28;20209;-70
2022/05/04 03:56:01;;;;;;;8.20;3.23;;;11.50;99.90;;;;;;4955926;28;20659;-70
2022/05/04 03:58:28;;;;;;;4.87;3.33;;;11.50;99.90;;;;;;4955902;28;20205;-70
2022/05/04 04:00:55;;;;;;;5.03;3.87;;;11.50;99.90;;;;;;4958393;28;20236;-70
2022/05/04 04:03:22;;;;;;;5.57;4.03;;;11.40;99.90;;;;;;4955332;28;20738;-69
2022/05/04 04:05:49;;;;;;;6.53;3.73;;;11.40;99.90;;;;;;4955006;28;20309;-70
2022/05/04 04:08:16;;;;;;;4.43;3.57;;;11.30;99.90;;;;;;4969580;28;20572;-69
2022/05/04 04:10:44;;;;;;;6.93;3.33;;;11.30;99.90;;;;;;4959902;28;20722;-71
2022/05/04 04:13:11;;;;;;;4.50;3.17;;;11.30;99.90;;;;;;4967540;28;20808;-70
2022/05/04 04:15:38;;;;;;;7.27;4.00;;;11.30;99.90;;;;;;4955813;28;20292;-70
2022/05/04 04:18:05;;;;;;;4.73;3.83;;;11.30;99.90;;;;;;4955748;28;20205;-69
2022/05/04 04:23:17;;;;;;;5.13;3.10;;;11.30;99.90;;;;;;4970994;28;20694;-69
2022/05/04 04:25:46;;;;;;;5.23;3.83;;;11.30;99.90;;;;;;4972030;28;20236;-69
2022/05/04 04:28:13;;;;;;;4.97;2.90;;;11.40;99.90;;;;;;4964918;28;20241;-70
2022/05/04 04:30:40;;;;;;;5.03;3.00;;;11.30;99.90;;;;;;4972063;28;20701;-69
2022/05/04 04:33:07;;;;;;;4.73;3.10;;;11.40;99.90;;;;;;4962645;28;20215;-69
2022/05/04 04:35:35;;;;;;;4.67;2.87;;;11.50;99.90;;;;;;4955295;28;20209;-70
2022/05/04 04:38:02;;;;;;;2.80;2.60;;;11.60;99.90;;;;;;4955334;28;20232;-69
2022/05/04 04:40:29;;;;;;;4.30;3.43;;;11.60;99.90;;;;;;4956680;28;20243;-69
2022/05/04 04:42:57;;;;;;;4.73;2.70;;;11.70;99.90;;;;;;4954500;28;20379;-69
2022/05/04 04:45:24;;;;;;;3.60;2.97;;;11.60;99.90;;;;;;4963101;28;21532;-70
2022/05/04 04:47:51;;;;;;;4.17;3.20;;;11.60;99.90;;;;;;4960651;28;20210;-70
2022/05/04 04:50:17;;;;;;;7.23;3.10;;;11.60;99.90;;;;;;4964834;28;20215;-70
2022/05/04 04:52:44;;;;;;;9.13;3.00;;;11.70;99.90;;;;;;4963945;28;20209;-70
2022/05/04 04:55:11;;;;;;;3.63;2.83;;;11.70;99.60;;;;;;4961208;28;20666;-69
2022/05/04 04:57:38;;;;;;;4.30;2.73;;;11.80;99.10;;;;;;4962686;28;20213;-70
2022/05/04 05:00:08;;;;;;;3.97;2.60;;;11.80;98.50;;;;;;4955402;28;20205;-69
2022/05/04 05:02:35;;;;;;;3.23;2.00;;;11.80;97.80;;;;;;4964749;28;20204;-70
2022/05/04 05:05:02;;;;;;;5.43;2.70;;;11.90;97.20;;;;;;4970591;28;20229;-70
2022/05/04 05:07:29;;;;;;;3.90;2.63;;;11.90;96.50;;;;;;4956706;28;20706;-70
2022/05/04 05:09:56;;;;;;;3.27;1.93;;;11.90;95.80;;;;;;4956868;28;20217;-70
2022/05/04 05:12:23;;;;;;;4.10;2.40;;;12.00;95.40;;;;;;4967247;28;20206;-69
2022/05/04 05:17:39;;;;;;;4.80;2.30;;;12.00;94.80;;;;;;4942697;28;20669;-70
2022/05/04 05:20:07;;;;;;;5.50;2.47;;;12.10;94.60;;;;;;4972736;28;20251;-70
2022/05/04 05:22:34;;;;;;;2.40;2.00;;;12.10;94.10;;;;;;4962517;28;20240;-70
2022/05/04 05:25:00;;;;;;;4.23;2.10;;;12.20;94.10;;;;;;4956864;28;20209;-69
2022/05/04 05:27:30;;;;;;;5.47;2.03;;;12.30;93.50;;;;;;4953514;28;20232;-69
2022/05/04 05:29:57;;;;;;;3.80;2.20;;;12.30;93.00;;;;;;4962443;28;20639;-70
2022/05/04 05:32:24;;;;;;;4.53;2.53;;;12.40;93.10;;;;;;4959474;28;20215;-69
2022/05/04 05:34:52;;;;;;;6.33;2.67;;;12.40;92.40;;;;;;4974006;28;20336;-68
2022/05/04 05:37:20;;;;;;;4.87;2.90;;;12.40;92.30;;;;;;4968524;28;20643;-70
2022/05/04 05:39:47;;;;;;;5.47;2.20;;;12.50;92.10;;;;;;4973649;28;20255;-70
2022/05/04 05:42:14;;;;;;;6.20;2.57;;;12.50;91.90;;;;;;4972823;28;20595;-70
2022/05/04 05:44:41;;;;;;;5.20;2.17;;;12.60;91.60;;;;;;4973647;28;20208;-69
2022/05/04 05:47:08;;;;;;;5.67;2.70;;;12.70;91.20;;;;;;4968488;28;20211;-68
2022/05/04 05:49:35;;;;;;;3.60;2.40;;;12.70;90.90;;;;;;4971227;28;20258;-68
2022/05/04 05:52:07;;;;;;;5.67;2.27;;;12.80;90.70;;;;;;4961043;28;20209;-69
2022/05/04 05:54:34;;;;;;;4.07;2.33;;;12.80;90.40;;;;;;4972664;28;20226;-69
2022/05/04 05:57:01;;;;;;;4.60;2.60;;;12.90;90.10;;;;;;4960033;28;20214;-72
2022/05/04 05:59:27;;;;;;;2.90;2.43;;;12.90;89.30;;;;;;4973463;28;20670;-69
2022/05/04 06:01:55;;;;;;;3.13;2.30;;;13.00;89.20;;;;;;4960257;28;20718;-68
2022/05/04 06:04:22;;;;;;;3.77;2.37;;;13.00;88.20;;;;;;4959885;28;20609;-69
2022/05/04 06:06:49;;;;;;;4.37;2.70;;;13.10;88.30;;;;;;4966355;28;20213;-69
2022/05/04 06:09:17;;;;;;;4.57;2.93;;;13.10;88.10;;;;;;4966339;28;20350;-68
2022/05/04 06:11:45;;;;;;;5.20;2.77;;;13.10;88.10;;;;;;4970469;28;20228;-68
2022/05/04 06:14:12;;;;;;;4.20;2.03;;;13.10;88.00;;;;;;4972807;28;20259;-67
2022/05/04 06:16:40;;;;;;;3.70;2.20;;;13.10;85.50;;;;;;4971475;28;20236;-69
2022/05/04 06:19:07;;;;;;;5.77;2.10;;;13.10;83.60;;;;;;4968892;28;20546;-69
2022/05/04 06:21:34;;;;;;;4.73;2.07;;;13.10;82.50;;;;;;4960238;28;20300;-70
2022/05/04 06:24:01;;;;;;;2.37;2.10;;;13.10;81.60;;;;;;4967871;28;20206;-69
2022/05/04 06:26:30;;;;;;;3.30;1.97;;;13.00;80.50;;;;;;4957707;28;20213;-70
2022/05/04 06:28:57;;;;;;;5.03;2.30;;;12.90;80.30;;;;;;4963489;28;20216;-70
2022/05/04 06:34:10;;;;;;;4.77;2.30;;;13.10;80.00;;;;;;4958765;28;20208;-71
2022/05/04 06:36:38;;;;;;;4.83;2.07;;;13.10;80.10;;;;;;4954984;28;20221;-69
2022/05/04 06:39:06;;;;;;;4.53;1.90;;;13.10;78.80;;;;;;4967699;28;20243;-70
2022/05/04 06:41:35;;;;;;;6.53;2.23;;;13.00;77.90;;;;;;4958579;28;20328;-69
2022/05/04 06:44:02;;;;;;;5.60;1.43;;;13.00;77.90;;;;;;4961859;28;20647;-69
2022/05/04 06:46:29;;;;;;;5.73;1.93;;;12.90;76.10;;;;;;4958256;28;20574;-70
2022/05/04 06:48:56;;;;;;;4.27;1.90;;;12.90;76.00;;;;;;4965979;28;20660;-68
2022/05/04 06:51:23;;;;;;;4.77;2.10;;;12.80;76.50;;;;;;4965564;28;20236;-70
2022/05/04 06:53:50;;;;;;;2.97;1.90;;;12.80;76.80;;;;;;4955987;28;20209;-70
2022/05/04 06:56:17;;;;;;;3.53;1.77;;;13.00;77.50;;;;;;4957241;28;20256;-71
2022/05/04 06:58:45;;;;;;;2.93;2.07;;;13.10;77.10;;;;;;4966579;28;20241;-68
2022/05/04 07:01:12;;;;;;;4.10;1.80;;;13.30;76.80;;;;;;4957392;28;20236;-71
2022/05/04 07:03:40;;;;;;;6.67;2.63;;;13.40;75.70;;;;;;4961582;28;20659;-69
2022/05/04 07:06:07;;;;;;;2.83;1.57;;;13.50;75.80;;;;;;4956599;28;20251;-70
2022/05/04 07:08:34;;;;;;;3.13;1.70;;;13.60;75.60;;;;;;4960867;28;20214;-69
2022/05/04 07:11:01;;;;;;;4.87;1.60;;;13.70;74.40;;;;;;4963832;28;20614;-69
2022/05/04 07:13:28;;;;;;;3.77;1.60;;;13.90;73.70;;;;;;4960577;28;20256;-71
2022/05/04 07:15:57;;;;;;;2.93;1.43;;;14.00;73.60;;;;;;4964841;28;20252;-69
2022/05/04 07:18:24;;;;;;;1.90;1.33;;;14.20;73.20;;;;;;4958441;28;20225;-70
2022/05/04 07:20:51;;;;;;;6.30;2.17;;;14.20;72.30;;;;;;4961850;28;20250;-70
2022/05/04 07:23:19;;;;;;;4.23;1.50;;;14.30;72.30;;;;;;4968354;28;20256;-73
2022/05/04 07:25:45;;;;;;;7.47;1.57;;;14.50;72.00;;;;;;4970903;28;20247;-69
2022/05/04 07:28:13;;;;;;;3.67;1.97;;;14.60;71.20;;;;;;4969425;28;20583;-71
2022/05/04 07:30:40;;;;;;;3.53;1.80;;;14.80;70.70;;;;;;4961287;28;20289;-70
2022/05/04 07:33:08;;;;;;;5.40;2.60;;;14.90;70.30;;;;;;4966572;28;20206;-71
2022/05/04 07:35:35;;;;;;;2.37;1.47;;;15.00;69.50;;;;;;4960402;28;20232;-70
2022/05/04 07:38:02;;;;;;;3.67;2.20;;;15.10;69.10;;;;;;4964633;28;20241;-71
2022/05/04 07:43:13;;;;;;;4.50;2.00;;;15.30;67.40;;;;;;4977908;28;20295;-71
2022/05/04 07:45:40;;;;;;;3.33;1.97;;;15.20;67.50;;;;;;4961200;28;20248;-72
2022/05/04 07:48:09;;;;;;;4.03;2.37;;;15.10;67.00;;;;;;4973796;28;20263;-70
2022/05/04 07:50:36;;;;;;;2.90;1.43;;;15.10;67.70;;;;;;4975196;28;20212;-71
2022/05/04 07:53:03;;;;;;;4.20;1.60;;;15.10;66.40;;;;;;4967406;28;20205;-71
2022/05/04 07:55:31;;;;;;;2.10;1.57;;;15.10;66.20;;;;;;4972439;28;20220;-70
2022/05/04 07:58:01;;;;;;;4.20;1.30;;;15.20;66.70;;;;;;4962594;28;20205;-71
2022/05/04 08:05:58;;;;;;;3.47;1.67;;;15.70;64.60;;;;;;4961987;28;20249;-72
2022/05/04 08:08:25;;;;;;;2.87;1.77;;;15.90;64.00;;;;;;4967707;28;20272;-72
2022/05/04 08:10:52;;;;;;;2.50;1.50;;;16.00;63.40;;;;;;4958144;28;20689;-71
2022/05/04 08:13:20;;;;;;;3.57;1.80;;;16.10;62.80;;;;;;4970077;28;20714;-72
2022/05/04 08:15:47;;;;;;;3.27;1.87;;;16.30;62.50;;;;;;4961394;28;20671;-70
2022/05/04 08:18:16;;;;;;;5.07;1.63;;;16.50;62.00;;;;;;4956233;28;20263;-71
2022/05/04 08:20:43;;;;;;;2.97;1.57;;;16.60;61.50;;;;;;4964812;28;20557;-72
2022/05/04 08:23:10;;;;;;;4.23;1.60;;;16.70;61.30;;;;;;4968175;28;20663;-72
2022/05/04 08:25:38;;;;;;;3.33;1.77;;;16.90;61.00;;;;;;4964777;28;20208;-72
2022/05/04 08:28:05;;;;;;;3.67;1.52;;;17.10;60.70;;;;;;4969801;28;20312;-74
2022/05/04 08:30:32;;;;;;;5.60;1.98;;;17.20;60.00;;;;;;4962650;28;20251;-72
2022/05/04 08:32:59;;;;;;;2.13;1.33;;;17.20;59.60;;;;;;4958468;28;20201;-72
2022/05/04 08:35:27;;;;;;;2.80;1.77;;;17.30;59.40;;;;;;4958351;28;20220;-72
2022/05/04 08:37:54;;;;;;;8.23;1.88;;;17.30;59.30;;;;;;4963043;28;20299;-71
2022/05/04 08:40:21;;;;;;;3.75;1.55;;;17.20;59.30;;;;;;4969176;28;20216;-71
2022/05/04 08:42:48;;;;;;;1.30;0.82;;;17.20;59.60;;;;;;4958269;28;20320;-70
2022/05/04 08:45:15;;;;;;;3.67;1.67;;;17.20;59.50;;;;;;4965294;28;20884;-70
2022/05/04 08:47:44;;;;;;;2.78;1.60;;;17.40;59.30;;;;;;4960504;28;20213;-71
2022/05/04 08:50:13;;;;;;;2.72;1.50;;;17.40;58.80;;;;;;4959156;28;20231;-70
2022/05/04 08:52:51;;;;;;;2.17;1.45;;;17.50;58.40;;;;;;4965770;28;20275;-71
2022/05/04 08:55:18;;;;;;;5.88;2.10;;;17.50;58.50;;;;;;4963977;28;20205;-71
2022/05/04 08:57:45;;;;;;;7.03;2.10;;;17.60;58.50;;;;;;4973811;28;20315;-71
2022/05/04 09:00:13;;;;;;;3.88;1.52;;;17.60;58.60;;;;;;4975224;28;20228;-72
2022/05/04 09:02:40;;;;;;;3.15;1.85;;;17.70;58.50;;;;;;4963096;28;20714;-71
2022/05/04 09:05:15;;;;;;;7.15;2.60;;;17.80;58.80;;;;;;4968549;28;20209;-74
2022/05/04 09:07:44;;;;;;;2.03;1.67;;;17.90;57.90;;;;;;4975818;28;20632;-73
2022/05/04 09:10:17;;;;;;;2.17;1.52;;;18.00;57.60;;;;;;4965817;28;20604;-71
2022/05/04 09:12:45;;;;;;;4.18;1.33;;;18.10;57.50;;;;;;4968123;28;20205;-71
2022/05/04 09:15:19;;;;;;;1.50;1.25;;;18.30;57.60;;;;;;4975213;28;20646;-72
2022/05/04 09:17:46;;;;;;;4.38;1.90;;;18.50;56.90;;;;;;4975409;28;20280;-70
2022/05/04 09:22:59;;;;;;;1.63;1.20;;;18.70;56.40;;;;;;4964566;28;20717;-70
2022/05/04 09:25:26;;;;;;;2.10;1.25;;;18.70;55.80;;;;;;4956707;28;20574;-72
2022/05/04 09:27:53;;;;;;;2.90;1.60;;;18.70;55.50;;;;;;4973220;28;20235;-71
2022/05/04 09:30:26;;;;;;;1.98;1.23;;;18.70;55.80;;;;;;4967437;28;20229;-70
2022/05/04 09:32:53;;;;;;;1.50;0.90;;;18.90;55.90;;;;;;4973737;28;20211;-71
2022/05/04 09:35:20;;;;;;;2.28;1.30;;;19.10;55.40;;;;;;4959619;28;20205;-72
2022/05/04 09:46:08;;;;;;;1.38;1.23;;;20.10;54.80;;;;;;4958790;28;20620;-71
2022/05/04 09:48:36;;;;;;;1.60;1.50;;;20.40;55.00;;;;;;4957482;28;20212;-70
2022/05/04 09:51:05;;;;;;;5.07;1.40;;;20.70;54.50;;;;;;4953822;28;20256;-70
2022/05/04 09:53:32;;;;;;;6.57;1.63;;;21.00;54.00;;;;;;4954075;28;20209;-70
2022/05/04 09:56:01;;;;;;;2.30;1.02;;;21.20;52.30;;;;;;4958117;28;20241;-72
2022/05/04 09:58:29;;;;;;;2.40;1.40;;;21.40;51.70;;;;;;4960731;28;20272;-71
2022/05/04 10:00:57;;;;;;;3.63;1.40;;;21.50;51.20;;;;;;4957190;28;20213;-71
2022/05/04 10:03:25;;;;;;;2.22;1.17;;;21.70;50.30;;;;;;4959508;28;20225;-71
2022/05/04 10:05:54;;;;;;;2.42;0.90;;;21.90;50.00;;;;;;4958370;28;20220;-70
2022/05/04 10:08:22;;;;;;;1.67;1.30;;;22.00;49.10;;;;;;4959075;28;20208;-72
2022/05/04 10:10:50;;;;;;;3.35;1.30;;;22.00;48.50;;;;;;4957399;28;20209;-71
2022/05/04 10:13:20;;;;;;;1.25;1.02;;;22.00;48.20;;;;;;4958206;28;20237;-71
2022/05/04 10:15:51;;;;;;;3.45;1.73;;;21.80;48.20;;;;;;4956140;28;20213;-71
2022/05/04 10:18:24;;;;;;;3.60;1.30;;;21.80;48.50;;;;;;4958846;28;20297;-71
2022/05/04 10:21:01;;;;;;;3.60;1.15;;;21.90;48.40;;;;;;4958997;28;20911;-71
2022/05/04 10:23:32;;;;;;;1.85;1.20;;;22.10;48.70;;;;;;4970503;28;20212;-73
2022/05/04 10:26:00;;;;;;;2.10;1.13;;;22.40;48.30;;;;;;4959688;28;20220;-70
2022/05/04 10:28:28;;;;;;;2.03;1.15;;;22.70;47.70;;;;;;4966403;28;20228;-70
2022/05/04 10:30:55;;;;;;;1.90;1.20;;;23.00;46.60;;;;;;4972104;28;20216;-71
2022/05/04 10:33:25;;;;;;;2.17;1.80;;;23.20;46.50;;;;;;4963647;28;20321;-71
2022/05/04 10:35:53;;;;;;;1.65;0.98;;;23.50;46.10;;;;;;4974354;28;20216;-70
2022/05/04 10:38:30;;;;;;;2.97;1.30;;;23.50;45.20;;;;;;4973728;28;20236;-71
2022/05/04 10:40:59;;;;;;;2.35;1.15;;;23.40;45.30;;;;;;4965605;28;20239;-70
2022/05/04 10:43:38;;;;;;;1.92;0.98;;;23.10;44.50;;;;;;4966060;28;20233;-70
2022/05/04 10:46:10;;;;;;;4.20;1.65;;;22.70;44.80;;;;;;4968917;28;20259;-70
2022/05/04 10:48:43;;;;;;;1.13;1.02;;;22.60;45.10;;;;;;4960557;28;20751;-72
2022/05/04 10:51:18;;;;;;;2.38;1.27;;;22.50;45.60;;;;;;4960579;28;20205;-71
2022/05/04 10:53:48;;;;;;;1.33;1.10;;;22.50;45.50;;;;;;4961743;28;20647;-70
2022/05/04 10:56:18;;;;;;;2.53;1.75;;;22.40;45.60;;;;;;4961416;28;20245;-71
2022/05/04 10:58:53;;;;;;;3.33;1.10;;;22.50;45.70;;;;;;4962675;28;20424;-70
2022/05/04 11:01:23;;;;;;;2.88;1.15;;;22.70;45.50;;;;;;4960723;28;20239;-71
2022/05/04 11:03:59;;;;;;;2.22;1.10;;;22.90;46.00;;;;;;4957940;28;20233;-72
2022/05/04 11:06:30;;;;;;;5.05;1.48;;;23.20;45.00;;;;;;4965039;28;20204;-72
2022/05/04 11:08:59;;;;;;;1.38;1.00;;;23.20;44.10;;;;;;4960403;28;20216;-71
2022/05/04 11:11:28;;;;;;;4.45;1.48;;;23.10;44.70;;;;;;4963740;28;20205;-71
2022/05/04 11:13:56;;;;;;;2.75;1.30;;;23.00;44.70;;;;;;4959507;28;20640;-70
2022/05/04 11:16:25;;;;;;;5.05;1.25;;;23.00;44.40;;;;;;4959190;28;20241;-71
2022/05/04 11:18:52;;;;;;;2.47;1.52;;;23.00;44.50;;;;;;4956957;28;20237;-71
2022/05/04 11:21:20;;;;;;;3.42;1.20;;;22.90;44.40;;;;;;4960952;28;20295;-70
2022/05/04 11:23:50;;;;;;;2.45;0.98;;;23.10;45.00;;;;;;4959720;28;20224;-70
2022/05/04 11:26:18;;;;;;;1.52;1.17;;;23.20;44.10;;;;;;4970314;28;20204;-71
2022/05/04 11:28:45;;;;;;;2.78;1.20;;;23.10;43.90;;;;;;4961102;28;20209;-70
2022/05/04 11:31:14;;;;;;;2.45;1.30;;;23.10;44.10;;;;;;4966144;28;20217;-70
2022/05/04 11:33:42;;;;;;;1.38;1.20;;;23.10;43.90;;;;;;4967342;28;20662;-72
2022/05/04 11:36:10;;;;;;;4.20;1.60;;;22.90;43.80;;;;;;4967396;28;20213;-70
2022/05/04 11:38:37;;;;;;;5.28;2.60;;;22.50;43.00;;;;;;4960021;28;20705;-72
2022/05/04 11:41:04;;;;;;;4.15;1.70;;;22.00;43.90;;;;;;4973901;28;20209;-72
2022/05/04 11:43:34;;;;;;;2.50;1.70;;;21.70;44.30;;;;;;4966779;28;20757;-70
2022/05/04 11:46:06;;;;;;;2.42;0.90;;;21.60;45.10;;;;;;4972864;28;20240;-70
2022/05/04 11:48:37;;;;;;;3.08;1.20;;;21.50;44.90;;;;;;4972942;28;20207;-69
2022/05/04 11:51:05;;;;;;;2.33;1.20;;;21.30;44.40;;;;;;4962561;28;20247;-71
2022/05/04 11:53:34;;;;;;;2.85;1.15;;;21.30;44.50;;;;;;4977050;28;20209;-70
2022/05/04 11:56:03;;;;;;;2.63;0.90;;;21.40;44.80;;;;;;4965652;28;20253;-72
2022/05/04 11:58:32;;;;;;;3.75;1.02;;;21.70;45.70;;;;;;4965877;28;20307;-70
2022/05/04 12:00:59;;;;;;;2.10;1.17;;;22.00;44.50;;;;;;4966339;28;20234;-70
2022/05/04 12:03:27;;;;;;;1.90;1.00;;;22.00;44.50;;;;;;4962485;28;20803;-70
2022/05/04 12:05:56;;;;;;;2.65;1.27;;;21.90;44.50;;;;;;4971294;28;20698;-69
2022/05/04 12:08:23;;;;;;;1.73;1.60;;;21.80;44.00;;;;;;4966369;28;20299;-69
2022/05/04 12:10:52;;;;;;;2.13;1.40;;;21.60;44.20;;;;;;4968749;28;20220;-71
2022/05/04 12:13:23;;;;;;;4.13;1.98;;;21.40;44.40;;;;;;4962469;28;20206;-70
2022/05/04 12:15:50;;;;;;;3.45;1.52;;;21.30;44.70;;;;;;4970587;28;20216;-71
2022/05/04 12:18:17;;;;;;;1.92;1.10;;;21.10;44.80;;;;;;4965395;28;20213;-69
2022/05/04 12:20:45;;;;;;;1.70;1.48;;;21.20;45.50;;;;;;4968131;28;20204;-71
2022/05/04 12:23:15;;;;;;;1.98;1.50;;;21.50;45.00;;;;;;4964107;28;20269;-71
2022/05/04 12:25:43;;;;;;;3.05;1.20;;;21.60;44.10;;;;;;4960627;28;20212;-69
2022/05/04 12:28:11;;;;;;;1.48;0.98;;;21.40;43.70;;;;;;4956107;28;20233;-74
2022/05/04 12:33:31;;;;;;;1.98;1.35;;;21.50;44.50;;;;;;4956109;28;20452;-71
2022/05/04 12:36:01;;;;;;;2.90;1.35;;;21.80;44.40;;;;;;4958155;28;20209;-69
2022/05/04 12:38:30;;;;;;;1.63;1.20;;;22.00;44.10;;;;;;4966413;28;20221;-69
2022/05/04 12:40:57;;;;;;;3.35;1.20;;;22.10;45.10;;;;;;4971159;28;20208;-70
2022/05/04 12:43:26;;;;;;;1.73;1.27;;;22.20;44.40;;;;;;4968001;28;20276;-71
2022/05/04 12:45:57;;;;;;;1.35;1.25;;;22.20;44.50;;;;;;4960232;28;20205;-70
2022/05/04 12:48:26;;;;;;;3.70;1.50;;;22.40;44.20;;;;;;4960337;28;20205;-70
2022/05/04 12:50:56;;;;;;;3.22;1.50;;;22.40;43.70;;;;;;4958169;28;20654;-70
2022/05/04 12:53:25;;;;;;;4.80;1.30;;;22.50;44.00;;;;;;4954939;28;20237;-69
2022/05/04 12:58:39;;;;;;;2.92;2.40;;;22.90;43.20;;;;;;4955581;28;20205;-70
2022/05/04 13:01:07;;;;;;;5.03;2.05;;;22.80;42.80;;;;;;4955761;28;20565;-70
2022/05/04 13:03:35;;;;;;;2.33;1.58;;;22.60;43.60;;;;;;4964736;28;20232;-71
2022/05/04 13:06:02;;;;;;;3.67;1.73;;;22.50;43.20;;;;;;4965958;28;20209;-71
2022/05/04 13:08:30;;;;;;;3.05;1.52;;;22.40;43.40;;;;;;4957242;28;20213;-70
2022/05/04 13:10:59;;;;;;;3.45;1.88;;;22.40;43.40;;;;;;4955492;28;20691;-70
2022/05/04 13:13:26;;;;;;;5.32;2.10;;;22.50;43.80;;;;;;4959321;28;20291;-70
2022/05/04 13:15:53;;;;;;;5.13;2.17;;;22.60;43.60;;;;;;4961217;28;20223;-71
2022/05/04 13:18:21;;;;;;;5.95;2.25;;;22.70;42.60;;;;;;4967460;28;20212;-70
2022/05/04 13:20:49;;;;;;;3.88;2.00;;;22.60;42.70;;;;;;4955142;28;20265;-70
2022/05/04 13:23:17;;;;;;;3.25;1.63;;;22.50;42.60;;;;;;4963858;28;20225;-71
2022/05/04 13:25:44;;;;;;;3.55;2.20;;;22.40;42.40;;;;;;4961053;28;20220;-70
2022/05/04 13:28:12;;;;;;;4.93;1.65;;;22.40;42.90;;;;;;4953115;28;20344;-69
2022/05/04 13:30:39;;;;;;;4.45;1.80;;;22.40;43.20;;;;;;4953804;28;20621;-69